Beauvais-Tillé Airport

Airport
ICAO code: 
LFOB
IATA Code: 
BVA
Summary
ICAO Region: 
EUR
Territory: 
Location: 
Tillé, Picardie
Serving: 
Beauvais
Elevation: 
359 ft
Coordinates: 
Aerial View: 
49° 27' 12.357" N, 2° 6' 54.658" E
Metar
Observation
LFOB 061130Z AUTO 19010KT 9999 BKN010 OVC110 06/05 Q1013 TEMPO SCT008 OVC030 BECMG RA
Station
Beauvais
Date/Time
2021-12-06 11:30:00
Wind direction
190°
Wind speed
10 kts
Lowest cloud amount
broken clouds
Temperature
6°C
Dew point
5°C
Humidity
93%
QNH
1013 hPa
Weather condition
n/a

Description

Airport serving Beauvais.

Climatology

Temperate Marine climate/Oceanic climate (Köppen climate classification Cfb). Moderately cool summer and comparatively warm winter. Prevailing south-westerly winds from the Atlantic Ocean.

Runways

Designator Length Width Surface Rops
13R/31L 0 0 UNK No/No
4/22 1105 30 ASP Yes/Yes
13/31 2430 45 ASP Yes/Yes
Airport map: 
Aerial View: 

SKYbrary Partners:

Safety knowledge contributed by: